Terminal Aerodrome Forecast
Issued by NWS Shreveport, LA

Home | Current Version | Previous Version | Text Only | Print | Product List | Glossary On
Versions: 1 2 3 4 5 6 7 8 9 10 11 12 13 14 15 16 17 18 19
491
FTUS44 KSHV 280759 AAA
TAFGGG
TAF AMD
KGGG 280759Z 2808/2906 14008KT P6SM BKN025
     FM280900 17010G15KT P6SM OVC020
      TEMPO 2810/2813 OVC015
     FM281500 19016G28KT P6SM SKC
      TEMPO 2815/2819 18014G22KT SCT030
     FM290300 15018KT P6SM OVC025=

USA.gov is the U.S. government's official web portal to all federal, state and local government web resources and services.